createdAt,value
2023-03-06T00:00:50.899Z,13.40
2023-03-06T00:03:17.733Z,14.32
2023-03-06T00:05:44.528Z,14.43
2023-03-06T00:08:11.249Z,13.27
2023-03-06T00:10:38.198Z,16.58
2023-03-06T00:13:06.967Z,14.77
2023-03-06T00:15:34.106Z,14.02
2023-03-06T00:18:04.070Z,13.45
2023-03-06T00:20:30.581Z,14.57
2023-03-06T00:22:57.697Z,15.77
2023-03-06T00:25:24.755Z,14.95
2023-03-06T00:27:57.431Z,14.48
2023-03-06T00:30:24.966Z,12.65
2023-03-06T00:32:54.062Z,13.65
2023-03-06T00:35:21.111Z,15.80
2023-03-06T00:37:47.786Z,12.25
2023-03-06T00:40:19.777Z,14.10
2023-03-06T00:42:46.909Z,13.63
2023-03-06T00:45:14.202Z,17.70
2023-03-06T00:47:41.070Z,14.73
2023-03-06T00:50:08.724Z,15.30
2023-03-06T00:52:35.149Z,17.23
2023-03-06T00:55:01.624Z,18.02
2023-03-06T00:57:28.227Z,15.70
2023-03-06T00:59:57.847Z,14.77
2023-03-06T01:02:24.327Z,16.73
2023-03-06T01:04:59.764Z,15.48
2023-03-06T01:07:27.760Z,15.23
2023-03-06T01:09:54.490Z,13.30
2023-03-06T01:12:23.410Z,13.85
2023-03-06T01:14:50.246Z,17.02
2023-03-06T01:17:17.520Z,13.45
2023-03-06T01:19:43.952Z,13.73
2023-03-06T01:22:10.437Z,14.38
2023-03-06T01:24:36.874Z,15.77
2023-03-06T01:27:03.444Z,20.20
2023-03-06T01:29:29.958Z,13.75
2023-03-06T01:31:56.488Z,13.57
2023-03-06T01:34:24.940Z,16.10
2023-03-06T01:36:51.352Z,14.20
2023-03-06T01:39:17.816Z,12.68
2023-03-06T01:41:44.273Z,15.27
2023-03-06T01:44:13.638Z,15.13
2023-03-06T01:46:41.980Z,16.40
2023-03-06T01:49:25.656Z,12.30
2023-03-06T01:51:57.927Z,13.07
2023-03-06T01:54:28.656Z,14.23
2023-03-06T01:57:04.087Z,15.57
2023-03-06T01:59:32.708Z,16.42
2023-03-06T02:02:01.811Z,18.25
2023-03-06T02:04:31.440Z,15.68
2023-03-06T02:07:00.025Z,17.35
2023-03-06T02:09:30.958Z,17.75
2023-03-06T02:11:57.779Z,17.83
2023-03-06T02:14:25.504Z,17.35
2023-03-06T02:16:52.163Z,16.88
2023-03-06T02:19:36.752Z,15.65
2023-03-06T02:22:05.874Z,15.82
2023-03-06T02:24:42.585Z,16.25
2023-03-06T02:27:10.500Z,15.43
2023-03-06T02:29:37.000Z,18.10
2023-03-06T02:32:04.554Z,14.38
2023-03-06T02:34:47.485Z,16.45
2023-03-06T02:37:13.989Z,16.25
2023-03-06T02:39:45.017Z,15.07
2023-03-06T02:42:18.077Z,15.80
2023-03-06T02:44:44.652Z,19.95
2023-03-06T02:47:11.155Z,16.98
2023-03-06T02:49:37.538Z,16.77
2023-03-06T02:52:04.246Z,19.25
2023-03-06T02:54:30.681Z,16.90
2023-03-06T02:56:57.125Z,20.85
2023-03-06T02:59:23.699Z,15.02
2023-03-06T03:01:50.257Z,16.80
2023-03-06T03:04:16.771Z,15.40
2023-03-06T03:06:46.137Z,17.63
2023-03-06T03:09:12.604Z,19.42
2023-03-06T03:11:39.209Z,18.33
2023-03-06T03:14:07.644Z,17.45
2023-03-06T03:16:34.092Z,17.73
2023-03-06T03:19:01.170Z,18.35
2023-03-06T03:21:27.693Z,15.35
2023-03-06T03:23:54.208Z,19.73
2023-03-06T03:26:22.160Z,18.00
2023-03-06T03:28:48.833Z,19.77
2023-03-06T03:31:15.308Z,24.60
2023-03-06T03:33:42.233Z,20.60
2023-03-06T03:36:09.856Z,19.52
2023-03-06T03:38:37.204Z,18.15
2023-03-06T03:41:04.448Z,20.38
2023-03-06T03:43:31.376Z,19.45
2023-03-06T03:45:57.787Z,17.40
2023-03-06T03:48:24.187Z,17.85
2023-03-06T03:50:50.782Z,19.35
2023-03-06T03:53:17.328Z,16.73
2023-03-06T03:55:43.791Z,16.73
2023-03-06T03:58:10.292Z,18.55
2023-03-06T04:00:36.678Z,18.35
2023-03-06T04:03:03.266Z,18.45
2023-03-06T04:05:29.802Z,17.42
2023-03-06T04:07:56.426Z,21.63
2023-03-06T04:10:24.005Z,16.73
2023-03-06T04:12:50.433Z,17.50
2023-03-06T04:15:17.050Z,18.85
2023-03-06T04:17:43.462Z,19.52
2023-03-06T04:20:12.312Z,19.88
2023-03-06T04:22:38.870Z,18.80
2023-03-06T04:25:05.737Z,22.85
2023-03-06T04:27:32.219Z,20.42
2023-03-06T04:29:58.710Z,21.88
2023-03-06T04:32:25.324Z,20.73
2023-03-06T04:34:54.310Z,22.45
2023-03-06T04:37:22.730Z,20.35
2023-03-06T04:39:50.023Z,18.30
2023-03-06T04:42:16.506Z,21.67
2023-03-06T04:44:43.376Z,21.08
2023-03-06T04:47:10.094Z,20.70
2023-03-06T04:49:46.667Z,20.83
2023-03-06T04:52:13.177Z,21.33
2023-03-06T04:54:43.112Z,18.00
2023-03-06T04:57:10.414Z,20.25
2023-03-06T04:59:39.103Z,19.42
2023-03-06T05:02:06.704Z,21.38
2023-03-06T05:04:33.230Z,18.08
2023-03-06T05:06:59.638Z,18.02
2023-03-06T05:09:27.286Z,19.15
2023-03-06T05:11:53.726Z,19.23
2023-03-06T05:14:22.278Z,18.35
2023-03-06T05:16:48.787Z,20.83
2023-03-06T05:19:15.356Z,20.65
2023-03-06T05:21:41.785Z,16.33
2023-03-06T05:24:09.361Z,18.05
2023-03-06T05:26:35.792Z,16.23
2023-03-06T05:29:02.280Z,21.13
2023-03-06T05:31:28.794Z,17.17
2023-03-06T05:33:55.318Z,19.77
2023-03-06T05:36:21.757Z,17.20
2023-03-06T05:38:48.261Z,23.42
2023-03-06T05:41:15.288Z,24.08
2023-03-06T05:43:42.344Z,22.48
2023-03-06T05:46:11.196Z,20.88
2023-03-06T05:48:38.012Z,18.52
2023-03-06T05:51:05.579Z,18.10
2023-03-06T05:53:33.277Z,21.63
2023-03-06T05:56:02.649Z,22.55
2023-03-06T05:58:30.502Z,18.45
2023-03-06T06:00:57.953Z,21.02
2023-03-06T06:03:25.189Z,19.63
2023-03-06T06:05:52.731Z,22.83
2023-03-06T06:08:21.167Z,19.17
2023-03-06T06:10:47.687Z,19.33
2023-03-06T06:13:14.129Z,23.00
2023-03-06T06:15:40.756Z,20.50
2023-03-06T06:18:08.012Z,18.45
2023-03-06T06:20:37.483Z,20.45
2023-03-06T06:23:04.117Z,18.05
2023-03-06T06:25:30.614Z,22.80
2023-03-06T06:27:57.831Z,21.23
2023-03-06T06:30:24.716Z,20.95
2023-03-06T06:32:51.137Z,20.35
2023-03-06T06:35:26.625Z,18.98
2023-03-06T06:37:53.184Z,23.15
2023-03-06T06:40:24.275Z,22.42
2023-03-06T06:42:52.410Z,24.05
2023-03-06T06:45:18.918Z,20.75
2023-03-06T06:47:46.198Z,21.40
2023-03-06T06:50:13.739Z,19.92
2023-03-06T06:52:40.445Z,18.35
2023-03-06T06:55:07.445Z,18.15
2023-03-06T06:57:34.050Z,22.63
2023-03-06T07:00:00.598Z,23.60
2023-03-06T07:02:27.239Z,20.90
2023-03-06T07:05:04.291Z,22.50
2023-03-06T07:07:35.513Z,22.92
2023-03-06T07:10:05.547Z,23.10
2023-03-06T07:12:32.906Z,23.65
2023-03-06T07:14:59.530Z,24.80
2023-03-06T07:17:31.481Z,26.08
2023-03-06T07:22:24.610Z,25.30
2023-03-06T07:24:51.114Z,22.48
2023-03-06T07:27:17.576Z,22.85
2023-03-06T07:29:44.574Z,23.08
2023-03-06T07:32:11.910Z,24.90
2023-03-06T07:34:39.480Z,22.33
2023-03-06T07:37:05.978Z,22.52
2023-03-06T07:39:38.449Z,22.13
2023-03-06T07:42:07.510Z,22.77
2023-03-06T07:44:38.034Z,23.98
2023-03-06T07:47:05.251Z,25.20
2023-03-06T07:49:32.355Z,26.27
2023-03-06T07:51:59.024Z,25.75
2023-03-06T07:54:25.453Z,24.95
2023-03-06T07:56:52.621Z,27.83
2023-03-06T07:59:19.130Z,22.20
2023-03-06T08:01:45.557Z,24.98
2023-03-06T08:04:12.089Z,27.42
2023-03-06T08:06:38.526Z,26.23
2023-03-06T08:09:10.045Z,27.58
2023-03-06T08:11:36.503Z,24.63
2023-03-06T08:14:03.036Z,24.90
2023-03-06T08:16:30.592Z,27.30
2023-03-06T08:18:58.254Z,23.48
2023-03-06T08:21:26.892Z,27.25
2023-03-06T08:23:53.468Z,25.23
2023-03-06T08:26:22.981Z,25.88
2023-03-06T08:28:51.604Z,23.98
2023-03-06T08:31:28.999Z,29.92
2023-03-06T08:33:56.997Z,27.45
2023-03-06T08:36:24.032Z,26.80
2023-03-06T08:38:51.775Z,24.13
2023-03-06T08:41:19.831Z,23.88
2023-03-06T08:43:47.080Z,25.23
2023-03-06T08:46:14.161Z,26.13
2023-03-06T08:48:41.822Z,25.25
2023-03-06T08:51:09.334Z,23.02
2023-03-06T08:53:43.026Z,24.95
2023-03-06T08:56:25.112Z,25.58
2023-03-06T08:58:52.410Z,24.60
2023-03-06T09:01:25.346Z,24.92
2023-03-06T09:03:54.483Z,21.38
2023-03-06T09:06:22.866Z,23.02
2023-03-06T09:08:55.109Z,21.73
2023-03-06T09:11:23.078Z,23.00
2023-03-06T09:13:49.604Z,22.98
2023-03-06T09:16:16.354Z,23.38
2023-03-06T09:18:42.848Z,18.00
2023-03-06T09:21:10.071Z,22.02
2023-03-06T09:23:39.445Z,22.55
2023-03-06T09:26:07.054Z,17.95
2023-03-06T09:28:36.695Z,21.73
2023-03-06T09:31:11.503Z,17.23
2023-03-06T09:33:38.326Z,22.75
2023-03-06T09:36:06.776Z,19.83
2023-03-06T09:38:34.249Z,17.90
2023-03-06T09:41:28.869Z,20.85
2023-03-06T09:44:04.862Z,19.13
2023-03-06T09:47:00.925Z,17.30
2023-03-06T09:50:05.643Z,17.73
2023-03-06T09:52:48.145Z,16.10
2023-03-06T09:55:24.235Z,18.80
2023-03-06T09:58:21.144Z,16.13
2023-03-06T10:01:00.033Z,18.25
2023-03-06T10:03:51.142Z,16.80
2023-03-06T10:06:24.974Z,13.82
2023-03-06T10:09:17.737Z,16.10
2023-03-06T10:11:51.482Z,15.38
2023-03-06T10:14:37.321Z,16.45
2023-03-06T10:17:05.588Z,17.52
2023-03-06T10:19:38.082Z,16.50
2023-03-06T10:22:18.324Z,17.75
2023-03-06T10:25:13.276Z,17.02
2023-03-06T10:27:53.821Z,15.82
2023-03-06T10:30:41.429Z,15.35
2023-03-06T10:33:13.656Z,13.45
2023-03-06T10:35:48.559Z,15.45
2023-03-06T10:38:22.637Z,16.40
2023-03-06T10:41:00.331Z,13.38
2023-03-06T10:43:27.422Z,13.00
2023-03-06T10:45:54.000Z,16.48
2023-03-06T10:48:24.288Z,12.82
2023-03-06T10:50:52.869Z,15.98
2023-03-06T10:53:22.766Z,17.55
2023-03-06T10:55:58.842Z,13.45
2023-03-06T10:58:32.482Z,16.35
2023-03-06T11:01:06.835Z,14.10
2023-03-06T11:03:36.149Z,17.92
2023-03-06T11:06:15.372Z,14.02
2023-03-06T11:08:44.195Z,11.88
2023-03-06T11:11:36.520Z,13.95
2023-03-06T11:14:23.113Z,16.65
2023-03-06T11:16:53.738Z,14.60
2023-03-06T11:19:29.232Z,15.23
2023-03-06T11:22:06.109Z,11.63
2023-03-06T11:24:39.490Z,15.93
2023-03-06T11:27:16.690Z,13.43
2023-03-06T11:29:47.881Z,16.63
2023-03-06T11:32:32.585Z,13.43
2023-03-06T11:35:20.938Z,12.57
2023-03-06T11:38:02.921Z,14.77
2023-03-06T11:40:37.077Z,12.50
2023-03-06T11:43:36.026Z,12.20
2023-03-06T11:46:17.668Z,12.07
2023-03-06T11:49:09.641Z,13.93
2023-03-06T11:51:45.005Z,13.18
2023-03-06T11:54:13.471Z,14.50
2023-03-06T11:56:42.845Z,14.73
2023-03-06T11:59:42.134Z,17.52
2023-03-06T12:02:40.626Z,15.73
2023-03-06T12:05:26.601Z,19.25
2023-03-06T12:08:22.147Z,15.48
2023-03-06T12:10:57.516Z,18.50
2023-03-06T12:16:49.663Z,15.60
2023-03-06T12:19:33.111Z,19.27
2023-03-06T12:22:20.829Z,19.92
2023-03-06T12:24:59.470Z,17.95
2023-03-06T12:27:36.082Z,22.95
2023-03-06T12:30:14.994Z,21.60
2023-03-06T12:32:51.642Z,17.50
2023-03-06T12:35:44.729Z,22.08
2023-03-06T12:38:47.160Z,19.50
2023-03-06T12:46:49.309Z,15.55
2023-03-06T12:49:32.335Z,20.08
2023-03-06T12:52:00.989Z,15.60
2023-03-06T12:54:30.512Z,19.77
2023-03-06T12:56:59.302Z,16.45
2023-03-06T12:59:36.451Z,19.75
2023-03-06T13:02:47.442Z,18.23
2023-03-06T13:05:13.910Z,17.33
2023-03-06T13:07:52.848Z,16.40
2023-03-06T13:10:39.278Z,15.57
2023-03-06T13:13:18.901Z,16.88
2023-03-06T13:15:46.893Z,12.55
2023-03-06T13:18:24.474Z,15.90
2023-03-06T13:20:55.278Z,17.25
2023-03-06T13:23:31.048Z,14.55
2023-03-06T13:26:02.668Z,16.95
2023-03-06T13:28:47.604Z,14.23
2023-03-06T13:31:27.720Z,15.32
2023-03-06T13:34:06.418Z,16.67
2023-03-06T13:36:34.644Z,13.85
2023-03-06T13:39:02.085Z,17.88
2023-03-06T13:41:31.655Z,13.27
2023-03-06T13:44:06.024Z,16.38
2023-03-06T13:46:35.583Z,13.70
2023-03-06T13:49:24.858Z,16.30
2023-03-06T13:51:54.387Z,13.00
2023-03-06T13:54:30.779Z,14.45
2023-03-06T13:57:29.146Z,14.35
2023-03-06T14:00:23.806Z,13.35
2023-03-06T14:03:09.562Z,14.93
2023-03-06T14:05:45.846Z,21.33
2023-03-06T14:08:34.157Z,12.85
2023-03-06T14:11:27.223Z,14.88
2023-03-06T14:13:56.722Z,11.65
2023-03-06T14:16:32.705Z,11.93
2023-03-06T14:19:03.981Z,11.88
2023-03-06T14:21:39.477Z,14.82
2023-03-06T14:24:19.357Z,12.52
2023-03-06T14:26:51.565Z,15.30
2023-03-06T14:29:28.495Z,17.35
2023-03-06T14:31:59.649Z,16.02
2023-03-06T14:34:28.997Z,11.52
2023-03-06T14:36:59.889Z,13.75
2023-03-06T14:39:42.032Z,10.68
2023-03-06T14:42:25.944Z,14.35
2023-03-06T14:45:03.130Z,12.95
2023-03-06T14:47:32.337Z,12.70
2023-03-06T14:50:25.795Z,10.93
2023-03-06T14:52:57.168Z,13.18
2023-03-06T14:55:28.233Z,11.48
2023-03-06T14:58:14.268Z,11.07
2023-03-06T15:00:46.988Z,11.98
2023-03-06T15:03:17.984Z,10.57
2023-03-06T15:05:46.889Z,10.87
2023-03-06T15:08:19.419Z,14.30
2023-03-06T15:10:58.821Z,14.65
2023-03-06T15:13:27.234Z,11.18
2023-03-06T15:16:13.022Z,13.57
2023-03-06T15:18:56.383Z,13.80
2023-03-06T15:21:24.915Z,15.52
2023-03-06T15:23:54.278Z,14.68
2023-03-06T15:26:33.668Z,14.52
2023-03-06T15:29:09.019Z,14.77
2023-03-06T15:31:46.183Z,14.05
2023-03-06T15:34:23.471Z,14.63
2023-03-06T15:36:54.527Z,14.23
2023-03-06T15:39:41.295Z,15.30
2023-03-06T15:42:21.341Z,14.20
2023-03-06T15:44:49.936Z,15.07
2023-03-06T15:47:17.590Z,13.15
2023-03-06T15:49:53.079Z,14.57
2023-03-06T15:52:20.948Z,13.15
2023-03-06T15:54:47.816Z,15.27
2023-03-06T15:57:34.573Z,14.00
2023-03-06T16:00:26.662Z,16.80
2023-03-06T16:02:54.790Z,16.20
2023-03-06T16:05:21.870Z,17.42
2023-03-06T16:07:49.222Z,16.40
2023-03-06T16:10:18.521Z,17.08
2023-03-06T16:12:48.666Z,15.75
2023-03-06T16:15:22.293Z,14.82
2023-03-06T16:17:49.479Z,14.52
2023-03-06T16:20:19.950Z,15.25
2023-03-06T16:22:48.029Z,16.92
2023-03-06T16:25:28.128Z,15.35
2023-03-06T16:27:58.677Z,18.92
2023-03-06T16:30:32.690Z,15.75
2023-03-06T16:33:00.249Z,17.58
2023-03-06T16:35:27.225Z,19.30
2023-03-06T16:37:54.871Z,16.80
2023-03-06T16:40:32.383Z,16.75
2023-03-06T16:42:58.817Z,18.05
2023-03-06T16:45:25.260Z,17.27
2023-03-06T16:47:51.733Z,15.82
2023-03-06T16:50:24.268Z,21.25
2023-03-06T16:52:52.376Z,16.23
2023-03-06T16:55:19.186Z,16.60
2023-03-06T16:57:45.853Z,15.00
2023-03-06T17:00:19.977Z,16.05
2023-03-06T17:02:55.501Z,16.15
2023-03-06T17:05:23.904Z,19.50
2023-03-06T17:07:50.508Z,19.92
2023-03-06T17:10:19.377Z,25.02
2023-03-06T17:12:45.904Z,27.75
2023-03-06T17:15:13.543Z,19.95
2023-03-06T17:17:40.060Z,19.08
2023-03-06T17:20:08.354Z,17.38
2023-03-06T17:22:36.179Z,15.98
2023-03-06T17:25:17.700Z,16.15
2023-03-06T17:27:52.350Z,14.45
2023-03-06T17:30:18.936Z,15.95
2023-03-06T17:32:46.458Z,16.67
2023-03-06T17:35:33.902Z,18.63
2023-03-06T17:38:00.453Z,16.83
2023-03-06T17:40:27.090Z,16.38
2023-03-06T17:42:56.790Z,22.60
2023-03-06T17:45:23.296Z,27.30
2023-03-06T17:47:53.177Z,19.83
2023-03-06T17:50:19.654Z,19.35
2023-03-06T17:52:46.223Z,20.20
2023-03-06T17:55:18.436Z,18.65
2023-03-06T17:57:45.069Z,17.50
2023-03-06T18:00:18.229Z,17.80
2023-03-06T18:02:45.617Z,17.42
2023-03-06T18:05:13.323Z,17.75
2023-03-06T18:07:39.856Z,16.30
2023-03-06T18:10:06.908Z,15.43
2023-03-06T18:12:33.385Z,15.60
2023-03-06T18:14:59.919Z,16.92
2023-03-06T18:17:26.407Z,15.75
2023-03-06T18:19:52.926Z,15.43
2023-03-06T18:22:19.438Z,17.20
2023-03-06T18:24:45.992Z,17.85
2023-03-06T18:27:16.634Z,18.98
2023-03-06T18:29:43.305Z,17.88
2023-03-06T18:32:10.799Z,16.05
2023-03-06T18:34:37.553Z,15.20
2023-03-06T18:37:04.113Z,16.95
2023-03-06T18:39:30.664Z,20.60
2023-03-06T18:41:57.182Z,16.63
2023-03-06T18:44:24.707Z,16.38
2023-03-06T18:46:51.134Z,17.08
2023-03-06T18:49:18.002Z,19.80
2023-03-06T18:51:44.531Z,21.10
2023-03-06T18:54:11.741Z,19.02
2023-03-06T18:56:39.820Z,19.52
2023-03-06T18:59:07.008Z,20.10
2023-03-06T19:01:33.640Z,18.67
2023-03-06T19:04:04.240Z,20.83
2023-03-06T19:06:32.780Z,31.83
2023-03-06T19:08:59.527Z,18.23
2023-03-06T19:11:26.817Z,21.90
2023-03-06T19:13:55.534Z,18.38
2023-03-06T19:16:25.950Z,17.65
2023-03-06T19:18:56.065Z,16.70
2023-03-06T19:21:25.833Z,18.38
2023-03-06T19:23:52.363Z,19.35
2023-03-06T19:26:19.024Z,17.75
2023-03-06T19:28:46.209Z,17.42
2023-03-06T19:31:19.626Z,16.88
2023-03-06T19:33:56.618Z,18.85
2023-03-06T19:36:27.681Z,17.77
2023-03-06T19:38:56.156Z,17.63
2023-03-06T19:41:23.342Z,17.25
2023-03-06T19:43:53.825Z,16.38
2023-03-06T19:46:23.251Z,18.42
2023-03-06T19:49:01.282Z,19.52
2023-03-06T19:51:28.277Z,17.90
2023-03-06T19:53:57.961Z,18.58
2023-03-06T19:56:26.822Z,19.30
2023-03-06T19:58:54.783Z,16.73
2023-03-06T20:01:24.929Z,19.65
2023-03-06T20:04:00.387Z,18.20
2023-03-06T20:06:33.772Z,18.13
2023-03-06T20:09:05.833Z,18.73
2023-03-06T20:11:33.492Z,20.52
2023-03-06T20:14:01.886Z,20.02
2023-03-06T20:16:28.938Z,21.73
2023-03-06T20:18:58.623Z,23.63
2023-03-06T20:21:26.124Z,21.40
2023-03-06T20:23:58.044Z,23.40
2023-03-06T20:28:51.918Z,23.77
2023-03-06T20:31:21.621Z,26.00
2023-03-06T20:33:50.467Z,25.42
2023-03-06T20:36:27.475Z,25.83
2023-03-06T20:38:53.917Z,24.92
2023-03-06T20:41:23.707Z,25.08
2023-03-06T20:43:51.327Z,24.35
2023-03-06T20:46:19.086Z,24.98
2023-03-06T20:48:48.545Z,24.67
2023-03-06T20:51:24.296Z,26.25
2023-03-06T20:53:53.132Z,20.75
2023-03-06T20:56:22.082Z,25.58
2023-03-06T20:58:50.502Z,24.27
2023-03-06T21:01:23.288Z,23.27
2023-03-06T21:03:50.742Z,25.10
2023-03-06T21:06:17.905Z,25.73
2023-03-06T21:08:44.474Z,26.50
2023-03-06T21:11:10.966Z,24.00
2023-03-06T21:13:39.420Z,24.85
2023-03-06T21:16:07.642Z,27.92
2023-03-06T21:18:34.193Z,28.58
2023-03-06T21:21:06.549Z,28.77
2023-03-06T21:23:33.019Z,27.60
2023-03-06T21:26:13.061Z,27.75
2023-03-06T21:28:40.392Z,23.88
2023-03-06T21:31:11.718Z,27.38
2023-03-06T21:33:39.212Z,25.65
2023-03-06T21:36:06.727Z,25.30
2023-03-06T21:38:33.772Z,24.17
2023-03-06T21:41:11.882Z,25.92
2023-03-06T21:43:38.894Z,24.30
2023-03-06T21:46:07.946Z,26.55
2023-03-06T21:48:34.864Z,25.45
2023-03-06T21:51:12.857Z,24.15
2023-03-06T21:53:42.574Z,24.27
2023-03-06T21:56:10.621Z,26.00
2023-03-06T21:58:37.342Z,24.38
2023-03-06T22:01:12.509Z,24.77
2023-03-06T22:03:39.370Z,23.27
2023-03-06T22:06:18.864Z,24.38
2023-03-06T22:08:45.598Z,22.45
2023-03-06T22:11:15.226Z,24.85
2023-03-06T22:13:41.880Z,23.15
2023-03-06T22:16:09.004Z,25.60
2023-03-06T22:18:36.907Z,22.83
2023-03-06T22:21:09.594Z,23.00
2023-03-06T22:23:36.676Z,24.40
2023-03-06T22:26:05.120Z,24.67
2023-03-06T22:28:31.822Z,24.35
2023-03-06T22:31:25.908Z,25.90
2023-03-06T22:33:55.794Z,21.00
2023-03-06T22:36:23.615Z,24.05
2023-03-06T22:38:54.259Z,26.05
2023-03-06T22:41:21.719Z,25.63
2023-03-06T22:43:48.293Z,22.67
2023-03-06T22:46:16.656Z,23.48
2023-03-06T22:48:43.952Z,24.77
2023-03-06T22:51:13.976Z,24.38
2023-03-06T22:53:41.263Z,25.23
2023-03-06T22:56:11.002Z,22.75
2023-03-06T22:58:37.858Z,20.92
2023-03-06T23:01:12.637Z,22.05
2023-03-06T23:03:41.104Z,22.50
2023-03-06T23:06:21.321Z,22.83
2023-03-06T23:08:57.002Z,25.13
2023-03-06T23:11:30.740Z,19.83
2023-03-06T23:13:57.984Z,21.67
2023-03-06T23:16:25.197Z,21.58
2023-03-06T23:18:53.026Z,22.05
2023-03-06T23:21:21.781Z,21.70
2023-03-06T23:23:50.209Z,20.58
2023-03-06T23:26:18.048Z,20.02
2023-03-06T23:28:44.843Z,20.38
2023-03-06T23:31:17.807Z,22.52
2023-03-06T23:33:44.310Z,22.13
2023-03-06T23:36:15.042Z,20.98
2023-03-06T23:38:42.138Z,20.65
2023-03-06T23:41:18.031Z,20.73
2023-03-06T23:43:45.109Z,20.15
2023-03-06T23:46:14.472Z,22.08
2023-03-06T23:48:41.936Z,19.55
2023-03-06T23:51:20.054Z,20.05
2023-03-06T23:53:47.867Z,20.92
2023-03-06T23:56:15.344Z,20.35
2023-03-06T23:58:42.144Z,20.35
